Time;durP1;ratioP1;P1;durP2;ratioP2;P2;SDS_P1;SDS_P2;PMS_P1;PMS_P2;Temp;Humidity;BMP_temperature;BMP_pressure;BME280_temperature;BME280_humidity;BME280_pressure;Samples;Min_cycle;Max_cycle;Signal;HPM_P1;HPM_P2
2022/08/17 03:00:47;;;;;;;0.77;0.70;;;22.40;66.80;;;;;;6037996;23;20415;-79
2022/08/17 03:03:17;;;;;;;0.70;0.60;;;22.40;66.60;;;;;;5033457;28;20920;-78
2022/08/17 03:05:46;;;;;;;0.70;0.70;;;22.40;66.50;;;;;;5037690;28;20937;-78
2022/08/17 03:08:14;;;;;;;0.80;0.80;;;22.30;66.40;;;;;;5040295;28;20456;-78
2022/08/17 03:10:41;;;;;;;0.80;0.60;;;22.30;66.50;;;;;;5040110;28;20505;-78
2022/08/17 03:13:08;;;;;;;0.70;0.70;;;22.30;66.40;;;;;;5040006;28;20447;-78
2022/08/17 03:15:46;;;;;;;0.70;0.60;;;22.30;66.50;;;;;;5040597;28;20534;-78
2022/08/17 03:18:14;;;;;;;0.80;0.70;;;22.30;66.40;;;;;;5040117;28;20784;-78
2022/08/17 03:20:42;;;;;;;0.73;0.67;;;22.30;66.60;;;;;;5039640;28;20489;-78
2022/08/17 03:23:09;;;;;;;0.80;0.80;;;22.30;66.20;;;;;;5040003;28;20455;-79
2022/08/17 03:25:38;;;;;;;1.00;0.90;;;22.30;66.30;;;;;;5039970;28;20532;-78
2022/08/17 03:28:05;;;;;;;0.83;0.83;;;22.30;66.10;;;;;;5039846;28;20451;-78
2022/08/17 03:30:32;;;;;;;0.70;0.60;;;22.30;65.90;;;;;;5039942;28;20535;-79
2022/08/17 03:33:04;;;;;;;0.70;0.60;;;22.30;65.90;;;;;;5039586;28;20961;-78
2022/08/17 03:35:35;;;;;;;0.70;0.70;;;22.30;65.40;;;;;;5040316;28;20443;-78
2022/08/17 03:38:02;;;;;;;0.70;0.70;;;22.30;65.50;;;;;;5040764;28;20485;-78
2022/08/17 03:40:30;;;;;;;1.00;0.70;;;22.30;64.80;;;;;;5039700;28;20490;-78
2022/08/17 03:42:56;;;;;;;0.80;0.60;;;22.30;65.20;;;;;;5039767;28;20443;-78
2022/08/17 03:56:42;;;;;;;0.70;0.70;;;22.10;64.40;;;;;;5039680;28;20473;-78
2022/08/17 03:59:10;;;;;;;0.70;0.70;;;22.00;64.70;;;;;;5039615;28;20797;-78
2022/08/17 04:01:37;;;;;;;1.00;0.60;;;22.10;65.10;;;;;;5039444;28;20509;-78
2022/08/17 04:04:05;;;;;;;0.70;0.60;;;22.20;65.10;;;;;;5039737;28;20529;-78
2022/08/17 04:06:32;;;;;;;0.80;0.70;;;22.30;64.90;;;;;;5039535;28;20458;-78
2022/08/17 04:08:59;;;;;;;1.07;0.70;;;22.30;65.10;;;;;;5039509;28;20451;-78
2022/08/17 04:11:26;;;;;;;0.80;0.80;;;22.30;64.80;;;;;;5039450;28;20468;-78
2022/08/17 04:13:52;;;;;;;0.83;0.83;;;22.20;65.00;;;;;;5039463;28;20497;-78
2022/08/17 04:16:19;;;;;;;1.00;0.90;;;22.20;65.10;;;;;;5037546;28;20872;-78
2022/08/17 04:18:45;;;;;;;0.90;0.70;;;22.20;64.80;;;;;;5035940;28;20866;-78
2022/08/17 04:21:14;;;;;;;0.70;0.70;;;22.20;64.60;;;;;;5035940;28;20541;-78
2022/08/17 04:23:40;;;;;;;0.80;0.70;;;22.20;64.90;;;;;;5036273;28;20483;-77
2022/08/17 04:26:07;;;;;;;0.90;0.60;;;22.20;64.90;;;;;;5036098;28;20478;-78
2022/08/17 04:28:33;;;;;;;0.70;0.70;;;22.20;64.90;;;;;;5036075;28;20456;-78
2022/08/17 04:31:00;;;;;;;0.70;0.70;;;22.30;64.90;;;;;;5035994;28;20471;-78
2022/08/17 04:33:29;;;;;;;0.97;0.67;;;22.30;65.10;;;;;;5036035;28;20456;-78
2022/08/17 04:35:58;;;;;;;2.87;1.20;;;22.30;65.20;;;;;;5036029;28;20455;-78
2022/08/17 04:38:28;;;;;;;0.80;0.80;;;22.30;65.20;;;;;;5035679;28;20448;-78
2022/08/17 04:43:41;;;;;;;1.43;1.27;;;22.20;65.40;;;;;;5035959;28;20547;-78
2022/08/17 04:46:11;;;;;;;0.80;0.80;;;22.10;65.80;;;;;;5035812;28;20451;-78
2022/08/17 04:48:41;;;;;;;0.70;0.70;;;22.10;65.50;;;;;;5035669;28;20448;-78
2022/08/17 04:51:10;;;;;;;0.80;0.80;;;22.00;65.80;;;;;;5035622;28;20468;-78
2022/08/17 04:53:39;;;;;;;0.77;0.77;;;22.00;65.50;;;;;;5035723;28;20450;-78
2022/08/17 04:56:07;;;;;;;0.70;0.70;;;22.10;65.60;;;;;;5035574;28;20455;-77
2022/08/17 04:58:34;;;;;;;0.83;0.80;;;22.20;65.20;;;;;;5035557;28;20455;-78
2022/08/17 05:01:01;;;;;;;0.80;0.70;;;22.30;65.20;;;;;;5035234;28;20570;-78
2022/08/17 05:03:27;;;;;;;0.90;0.70;;;22.40;65.20;;;;;;5035627;28;20518;-78
2022/08/17 05:05:54;;;;;;;0.80;0.80;;;22.50;65.00;;;;;;5035549;28;20505;-78
2022/08/17 05:08:21;;;;;;;0.80;0.70;;;22.50;64.70;;;;;;5036256;28;20450;-78
2022/08/17 05:10:50;;;;;;;0.90;0.70;;;22.60;64.60;;;;;;5035042;28;20864;-78
2022/08/17 05:13:19;;;;;;;0.73;0.70;;;22.70;64.60;;;;;;5035389;28;20823;-78
2022/08/17 05:15:47;;;;;;;0.70;0.60;;;22.80;64.30;;;;;;5035324;28;20446;-78
2022/08/17 05:18:14;;;;;;;0.70;0.70;;;22.90;64.10;;;;;;5035259;28;20443;-78
2022/08/17 05:20:41;;;;;;;1.20;0.73;;;23.00;64.00;;;;;;5035183;28;20490;-78
2022/08/17 05:23:11;;;;;;;0.70;0.70;;;23.10;63.80;;;;;;5035163;28;20451;-78
2022/08/17 05:25:40;;;;;;;0.70;0.70;;;23.20;63.80;;;;;;5035134;28;20942;-78
2022/08/17 05:28:09;;;;;;;0.80;0.70;;;23.30;63.40;;;;;;5034917;28;20447;-78
2022/08/17 05:30:37;;;;;;;0.70;0.67;;;23.40;63.30;;;;;;5034991;28;20475;-78
2022/08/17 05:33:07;;;;;;;1.10;0.93;;;23.40;63.00;;;;;;5034865;28;20947;-77
2022/08/17 05:35:37;;;;;;;0.70;0.60;;;23.50;63.30;;;;;;5035878;28;20763;-76
2022/08/17 05:38:04;;;;;;;0.90;0.70;;;23.60;63.40;;;;;;5037523;28;20494;-77
2022/08/17 05:40:30;;;;;;;0.80;0.70;;;23.80;62.70;;;;;;5035305;28;20538;-77
2022/08/17 05:43:05;;;;;;;0.70;0.70;;;24.00;62.80;;;;;;5034987;28;20950;-77
2022/08/17 05:45:33;;;;;;;0.70;0.63;;;24.20;62.00;;;;;;5035314;28;20427;-77
2022/08/17 05:48:00;;;;;;;0.70;0.60;;;24.40;62.40;;;;;;5035344;28;20453;-77
2022/08/17 05:50:31;;;;;;;0.70;0.70;;;24.40;61.90;;;;;;5036023;28;20448;-79
2022/08/17 05:53:03;;;;;;;0.70;0.67;;;24.30;62.30;;;;;;5037829;28;20440;-81
2022/08/17 05:55:36;;;;;;;0.80;0.77;;;24.20;62.40;;;;;;5036406;28;20492;-78
2022/08/17 05:58:15;;;;;;;1.10;0.80;;;24.10;62.90;;;;;;5034792;28;20466;-78
2022/08/17 06:00:49;;;;;;;1.20;0.70;;;24.60;62.50;;;;;;5034538;28;22357;-79
2022/08/17 06:03:28;;;;;;;0.77;0.77;;;24.70;62.60;;;;;;5035538;28;20513;-80
2022/08/17 06:06:05;;;;;;;0.90;0.70;;;24.90;61.50;;;;;;5035563;28;20466;-79
2022/08/17 06:08:38;;;;;;;0.70;0.70;;;25.10;61.30;;;;;;5034551;28;20777;-80
2022/08/17 06:11:15;;;;;;;0.70;0.70;;;25.30;61.00;;;;;;5035044;28;20463;-79
2022/08/17 06:13:58;;;;;;;1.07;0.80;;;25.50;60.50;;;;;;5037985;28;20810;-79
2022/08/17 06:16:31;;;;;;;0.80;0.70;;;25.70;60.70;;;;;;5037326;28;20440;-80
2022/08/17 06:19:02;;;;;;;0.80;0.70;;;25.80;60.70;;;;;;5037526;28;20456;-80
2022/08/17 06:21:33;;;;;;;0.80;0.80;;;25.70;59.90;;;;;;5036705;28;20494;-80
2022/08/17 06:24:05;;;;;;;0.80;0.70;;;25.40;60.00;;;;;;5036432;28;20832;-79
2022/08/17 06:26:36;;;;;;;0.70;0.70;;;25.40;59.90;;;;;;5034996;28;20850;-81
2022/08/17 06:29:07;;;;;;;0.70;0.70;;;25.60;60.50;;;;;;5036133;28;20443;-80
2022/08/17 06:31:37;;;;;;;0.77;0.70;;;25.60;59.80;;;;;;5038126;28;20870;-80
2022/08/17 06:34:08;;;;;;;0.70;0.70;;;25.00;61.40;;;;;;5038033;28;20454;-80
2022/08/17 06:36:46;;;;;;;0.70;0.70;;;25.30;61.30;;;;;;5035100;28;20435;-79
2022/08/17 06:39:28;;;;;;;0.70;0.70;;;25.50;60.70;;;;;;5034535;28;20482;-78
2022/08/17 06:42:04;;;;;;;0.80;0.80;;;25.70;60.00;;;;;;5034377;28;20498;-79
2022/08/17 06:44:35;;;;;;;0.80;0.80;;;25.90;59.60;;;;;;5034304;28;20754;-79
2022/08/17 06:47:09;;;;;;;0.90;0.70;;;26.10;59.70;;;;;;5035129;28;20490;-80
2022/08/17 06:49:44;;;;;;;0.80;0.70;;;26.40;59.30;;;;;;5039098;28;20449;-80
2022/08/17 06:52:19;;;;;;;0.70;0.60;;;26.40;58.00;;;;;;5039773;28;20474;-80
2022/08/17 06:54:56;;;;;;;0.80;0.70;;;26.00;59.20;;;;;;5036101;28;20456;-79
2022/08/17 06:57:27;;;;;;;0.70;0.70;;;25.60;60.50;;;;;;5042587;28;20462;-79
2022/08/17 06:59:59;;;;;;;0.73;0.70;;;25.30;60.70;;;;;;5042089;28;20456;-80
2022/08/17 07:02:40;;;;;;;0.70;0.70;;;25.50;61.00;;;;;;5042190;28;20498;-80
2022/08/17 07:05:08;;;;;;;0.70;0.70;;;25.50;61.90;;;;;;5043388;28;20815;-80
2022/08/17 07:10:24;;;;;;;0.87;0.87;;;26.00;59.70;;;;;;5043112;28;20403;-79
2022/08/17 07:12:54;;;;;;;0.80;0.80;;;25.80;60.40;;;;;;5042546;28;20447;-79
2022/08/17 07:15:25;;;;;;;0.77;0.77;;;25.80;60.80;;;;;;5046822;28;20428;-79
2022/08/17 07:17:54;;;;;;;0.70;0.70;;;26.10;59.00;;;;;;5047122;28;20499;-80
2022/08/17 07:20:22;;;;;;;1.10;0.80;;;26.40;59.20;;;;;;5037030;28;20456;-78
2022/08/17 07:22:57;;;;;;;0.80;0.80;;;26.70;58.20;;;;;;5035505;28;20455;-79
2022/08/17 07:25:24;;;;;;;0.90;0.80;;;27.10;58.30;;;;;;5033965;28;20435;-77
2022/08/17 07:27:53;;;;;;;0.70;0.70;;;27.60;57.40;;;;;;5035383;28;20502;-79
2022/08/17 07:30:23;;;;;;;0.70;0.70;;;27.90;55.90;;;;;;5035530;28;20451;-83
2022/08/17 07:32:56;;;;;;;1.43;0.90;;;28.10;55.40;;;;;;5035503;28;20436;-79
2022/08/17 07:35:35;;;;;;;0.80;0.80;;;28.00;53.80;;;;;;5034900;28;20440;-79
2022/08/17 07:38:12;;;;;;;0.87;0.80;;;27.90;55.70;;;;;;5035296;28;20435;-79
2022/08/17 07:40:40;;;;;;;0.90;0.80;;;28.20;54.60;;;;;;5034498;28;20566;-79
2022/08/17 07:43:16;;;;;;;1.40;0.90;;;27.90;53.80;;;;;;5033173;28;20444;-77
2022/08/17 07:48:41;;;;;;;0.80;0.80;;;27.30;56.30;;;;;;5033397;28;20917;-78
2022/08/17 07:51:20;;;;;;;1.07;0.80;;;27.40;56.40;;;;;;5033175;28;20554;-78
2022/08/17 07:53:47;;;;;;;0.90;0.90;;;27.40;55.80;;;;;;5037101;28;20438;-78
2022/08/17 07:56:35;;;;;;;0.80;0.80;;;27.40;56.10;;;;;;5037810;28;20451;-78
2022/08/17 07:59:15;;;;;;;0.70;0.70;;;27.60;55.90;;;;;;5039687;28;20439;-78
2022/08/17 08:01:46;;;;;;;0.70;0.70;;;27.70;56.20;;;;;;5038536;28;20490;-78
2022/08/17 08:04:29;;;;;;;0.80;0.77;;;27.50;54.80;;;;;;5037043;28;20969;-78
2022/08/17 08:06:58;;;;;;;0.70;0.70;;;27.30;56.10;;;;;;5038895;28;20431;-77
2022/08/17 08:09:31;;;;;;;1.00;0.80;;;27.40;55.80;;;;;;5038419;28;20554;-78
2022/08/17 08:11:59;;;;;;;1.00;0.90;;;27.50;55.80;;;;;;5038079;28;20468;-78
2022/08/17 08:14:29;;;;;;;0.93;0.87;;;27.50;56.20;;;;;;5036444;28;20889;-78
2022/08/17 08:16:58;;;;;;;0.80;0.70;;;26.90;56.20;;;;;;5036616;28;20459;-77
2022/08/17 08:19:27;;;;;;;0.80;0.80;;;26.90;57.40;;;;;;5036379;28;20448;-77
2022/08/17 08:21:59;;;;;;;0.70;0.70;;;26.80;57.70;;;;;;5036073;28;20499;-77
2022/08/17 08:24:46;;;;;;;0.80;0.70;;;26.70;58.20;;;;;;5036241;28;20436;-77
2022/08/17 08:27:26;;;;;;;0.70;0.70;;;26.40;59.10;;;;;;5036153;28;20496;-77
2022/08/17 08:29:58;;;;;;;0.70;0.70;;;26.40;59.40;;;;;;5036204;28;20431;-78
2022/08/17 08:32:39;;;;;;;0.70;0.70;;;26.20;58.80;;;;;;5036189;28;20456;-78
2022/08/17 08:35:09;;;;;;;0.90;0.70;;;26.20;59.10;;;;;;5036266;28;20854;-78
2022/08/17 08:37:45;;;;;;;0.70;0.70;;;26.10;59.30;;;;;;5036179;28;20435;-78
2022/08/17 08:40:37;;;;;;;0.70;0.70;;;26.10;59.50;;;;;;5036648;28;20439;-78
2022/08/17 08:43:15;;;;;;;0.90;0.90;;;26.10;58.90;;;;;;5036094;28;20954;-77
2022/08/17 08:45:49;;;;;;;0.77;0.77;;;25.90;59.20;;;;;;5036085;28;20428;-77
2022/08/17 08:48:40;;;;;;;1.33;0.70;;;26.00;59.20;;;;;;5036629;28;20466;-77
2022/08/17 08:51:14;;;;;;;0.80;0.80;;;26.00;59.40;;;;;;5036395;28;20459;-78
2022/08/17 08:53:48;;;;;;;0.73;0.70;;;25.80;59.60;;;;;;5036560;28;20776;-78
2022/08/17 08:56:24;;;;;;;0.90;0.80;;;25.80;60.30;;;;;;5038170;28;20519;-77
2022/08/17 08:58:58;;;;;;;0.70;0.70;;;25.70;61.70;;;;;;5037029;28;20489;-78
2022/08/17 09:01:30;;;;;;;0.80;0.70;;;25.40;62.70;;;;;;5036124;28;20549;-77
2022/08/17 09:04:18;;;;;;;0.70;0.70;;;25.50;63.00;;;;;;5035084;28;20965;-77
2022/08/17 09:06:56;;;;;;;1.00;0.80;;;25.60;63.30;;;;;;5035906;28;20518;-73
2022/08/17 09:09:29;;;;;;;0.90;0.80;;;25.80;63.60;;;;;;5035530;28;20440;-72
2022/08/17 09:12:02;;;;;;;0.90;0.80;;;25.80;65.20;;;;;;5037676;28;20467;-79
2022/08/17 09:14:36;;;;;;;1.00;0.90;;;25.80;65.20;;;;;;5037980;28;20439;-79
2022/08/17 09:17:06;;;;;;;0.70;0.60;;;25.80;66.60;;;;;;5040149;28;20470;-80
2022/08/17 09:19:38;;;;;;;1.03;0.93;;;25.70;68.80;;;;;;5038693;28;20801;-79
2022/08/17 09:22:16;;;;;;;0.80;0.80;;;25.70;70.30;;;;;;5037075;28;20482;-79
2022/08/17 09:24:47;;;;;;;0.90;0.90;;;25.70;70.80;;;;;;5040204;28;20432;-80
2022/08/17 09:27:17;;;;;;;0.90;0.90;;;25.70;70.80;;;;;;5039386;28;20806;-79
2022/08/17 09:29:49;;;;;;;1.00;0.80;;;25.70;70.50;;;;;;5039935;28;20486;-79
2022/08/17 09:32:19;;;;;;;0.70;0.70;;;25.70;70.20;;;;;;5037114;28;20493;-79
2022/08/17 09:34:53;;;;;;;0.73;0.73;;;25.50;69.60;;;;;;5039503;28;20451;-80
2022/08/17 09:37:26;;;;;;;0.70;0.70;;;25.40;69.20;;;;;;5041910;28;20493;-79
2022/08/17 09:40:07;;;;;;;0.80;0.80;;;25.40;70.20;;;;;;5039324;28;20432;-79
2022/08/17 09:42:42;;;;;;;0.70;0.70;;;25.40;70.60;;;;;;5038391;28;20510;-78
2022/08/17 09:45:23;;;;;;;0.80;0.80;;;25.40;70.70;;;;;;5039387;28;20845;-79
2022/08/17 09:47:53;;;;;;;1.17;0.90;;;25.40;69.50;;;;;;5040516;28;20427;-80
2022/08/17 09:50:23;;;;;;;0.80;0.80;;;25.40;69.80;;;;;;5039681;28;20463;-80
2022/08/17 09:52:53;;;;;;;0.80;0.80;;;25.20;72.30;;;;;;5040240;28;20542;-81
2022/08/17 09:55:21;;;;;;;0.73;0.70;;;25.30;73.40;;;;;;5042268;28;20494;-80
2022/08/17 09:58:03;;;;;;;0.80;0.80;;;25.40;72.60;;;;;;5040242;28;20438;-82
2022/08/17 10:00:35;;;;;;;0.80;0.80;;;25.50;73.50;;;;;;5041126;28;20439;-78
2022/08/17 10:03:15;;;;;;;0.90;0.90;;;25.60;73.60;;;;;;5038847;28;20459;-80
2022/08/17 10:05:50;;;;;;;0.70;0.70;;;25.50;72.10;;;;;;5037898;28;20889;-81
2022/08/17 10:08:26;;;;;;;0.80;0.70;;;25.50;68.40;;;;;;5039803;28;20511;-79
2022/08/17 10:11:05;;;;;;;1.10;0.80;;;25.60;69.50;;;;;;5039103;28;20490;-80
2022/08/17 10:13:40;;;;;;;0.90;0.80;;;25.70;68.90;;;;;;5038718;28;20432;-80
2022/08/17 10:16:17;;;;;;;0.80;0.70;;;25.80;69.50;;;;;;5036344;28;20463;-79
2022/08/17 10:18:55;;;;;;;0.80;0.80;;;25.80;66.70;;;;;;5039194;28;20439;-77
2022/08/17 10:27:06;;;;;;;0.80;0.70;;;26.00;69.40;;;;;;5037884;28;20419;-78
2022/08/17 10:29:37;;;;;;;0.70;0.70;;;26.00;65.80;;;;;;5035663;28;20868;-78
2022/08/17 10:32:07;;;;;;;0.73;0.70;;;26.00;66.80;;;;;;5035578;28;20475;-77
2022/08/17 10:34:55;;;;;;;0.80;0.80;;;26.20;66.20;;;;;;5034883;28;20434;-78
2022/08/17 10:37:48;;;;;;;0.80;0.80;;;26.40;65.80;;;;;;5035214;28;20451;-77
2022/08/17 10:40:34;;;;;;;0.80;0.70;;;26.20;63.40;;;;;;5036878;28;20436;-79
2022/08/17 10:43:17;;;;;;;0.70;0.70;;;26.20;62.90;;;;;;5037578;28;20459;-79
2022/08/17 10:45:50;;;;;;;0.70;0.70;;;26.20;63.80;;;;;;5035056;28;20490;-78
2022/08/17 10:48:29;;;;;;;0.70;0.60;;;26.10;65.30;;;;;;5036588;28;20482;-78
2022/08/17 10:51:36;;;;;;;0.70;0.60;;;26.20;66.70;;;;;;5035273;28;20452;-76
2022/08/17 10:54:04;;;;;;;0.70;0.70;;;26.20;66.50;;;;;;5037743;28;20457;-78
2022/08/17 10:56:49;;;;;;;0.73;0.67;;;26.20;66.40;;;;;;5037808;28;20439;-77
2022/08/17 10:59:52;;;;;;;0.80;0.80;;;26.30;66.40;;;;;;5035141;28;20435;-78
2022/08/17 11:02:26;;;;;;;0.70;0.70;;;26.20;64.30;;;;;;5038467;28;21013;-79
2022/08/17 11:05:17;;;;;;;0.70;0.60;;;26.20;62.60;;;;;;5036965;28;20522;-79
2022/08/17 11:08:04;;;;;;;0.80;0.60;;;26.10;63.60;;;;;;5039712;28;20821;-79
2022/08/17 11:10:45;;;;;;;0.70;0.70;;;25.90;64.40;;;;;;5037274;28;20459;-78
2022/08/17 11:13:28;;;;;;;0.70;0.70;;;26.00;63.00;;;;;;5042525;28;20438;-79
2022/08/17 11:16:09;;;;;;;0.70;0.70;;;25.80;62.90;;;;;;5038370;28;20932;-78
2022/08/17 11:19:08;;;;;;;0.80;0.70;;;25.70;61.80;;;;;;5037359;28;20484;-76
2022/08/17 11:22:05;;;;;;;0.70;0.60;;;25.60;61.60;;;;;;5037455;28;20475;-79
2022/08/17 11:24:35;;;;;;;0.70;0.60;;;25.50;61.30;;;;;;5022763;28;20455;-79
2022/08/17 11:27:19;;;;;;;0.80;0.80;;;25.50;62.20;;;;;;5038704;28;20479;-79
2022/08/17 11:29:53;;;;;;;0.70;0.60;;;25.50;62.80;;;;;;5041961;28;20497;-79
2022/08/17 11:32:37;;;;;;;1.00;0.70;;;25.40;62.40;;;;;;5039402;28;20467;-79
2022/08/17 11:35:28;;;;;;;0.80;0.70;;;25.40;62.50;;;;;;5039139;28;20471;-78
2022/08/17 11:38:02;;;;;;;0.70;0.60;;;25.50;63.70;;;;;;5039034;28;20446;-80
2022/08/17 11:40:46;;;;;;;0.70;0.63;;;25.40;64.10;;;;;;5039514;28;20979;-79
2022/08/17 11:43:43;;;;;;;0.90;0.80;;;25.30;64.90;;;;;;5040161;28;20554;-80
2022/08/17 11:51:32;;;;;;;1.10;0.80;;;25.40;66.50;;;;;;5040725;28;20915;-78
2022/08/17 11:52:39;;;;;;;0.80;0.63;;;25.40;65.20;;;;;;5040168;28;20453;-78
2022/08/17 11:55:08;;;;;;;0.80;0.70;;;25.40;66.30;;;;;;5044386;28;20436;-79
2022/08/17 11:58:05;;;;;;;0.70;0.70;;;25.40;66.30;;;;;;5039455;28;20446;-79
2022/08/17 12:00:55;;;;;;;0.70;0.70;;;25.20;66.70;;;;;;5039873;28;20960;-78
2022/08/17 12:03:45;;;;;;;0.70;0.70;;;25.10;66.90;;;;;;5038983;28;20467;-76
2022/08/17 12:06:26;;;;;;;1.07;0.60;;;25.20;68.10;;;;;;5038178;28;20439;-77
2022/08/17 12:08:55;;;;;;;0.80;0.70;;;25.20;68.20;;;;;;5037702;28;20442;-77
2022/08/17 12:11:27;;;;;;;0.80;0.70;;;25.30;67.70;;;;;;5038118;28;20521;-77
2022/08/17 12:13:57;;;;;;;0.80;0.77;;;25.40;67.20;;;;;;5037628;28;20424;-77
2022/08/17 12:16:24;;;;;;;0.80;0.73;;;25.60;67.60;;;;;;5037485;28;20790;-77
2022/08/17 12:18:56;;;;;;;1.17;1.07;;;25.70;67.50;;;;;;5037915;28;20447;-77
2022/08/17 12:21:37;;;;;;;0.80;0.70;;;25.90;68.30;;;;;;5037860;28;20478;-77
2022/08/17 12:24:13;;;;;;;0.80;0.80;;;26.00;66.70;;;;;;5036818;28;20434;-77
2022/08/17 12:26:42;;;;;;;0.80;0.80;;;25.80;66.30;;;;;;5037095;28;20486;-77
2022/08/17 12:29:15;;;;;;;0.80;0.80;;;25.80;66.50;;;;;;5036518;28;20447;-77
2022/08/17 12:31:44;;;;;;;0.70;0.60;;;25.80;64.90;;;;;;5039404;28;20882;-77
2022/08/17 12:34:17;;;;;;;0.80;0.70;;;25.80;65.10;;;;;;5038112;28;20451;-77
2022/08/17 12:36:45;;;;;;;0.80;0.80;;;25.90;64.40;;;;;;5037622;28;20428;-78
2022/08/17 12:39:18;;;;;;;1.17;0.70;;;26.00;64.20;;;;;;5035650;28;20447;-78
2022/08/17 12:41:48;;;;;;;0.80;0.70;;;26.10;63.30;;;;;;5036156;28;20471;-76
2022/08/17 12:44:18;;;;;;;0.80;0.70;;;26.10;63.60;;;;;;5036128;28;20497;-77
2022/08/17 12:46:48;;;;;;;0.73;0.73;;;26.30;63.90;;;;;;5035854;28;20447;-77
2022/08/17 12:49:28;;;;;;;0.80;0.80;;;26.50;63.40;;;;;;5036115;28;20428;-77
2022/08/17 12:52:05;;;;;;;0.90;0.70;;;26.80;62.30;;;;;;5035903;28;20565;-77
2022/08/17 12:54:45;;;;;;;0.80;0.70;;;27.00;60.80;;;;;;5036038;28;20910;-76
2022/08/17 12:57:15;;;;;;;0.70;0.63;;;27.30;61.60;;;;;;5036208;28;20907;-77
2022/08/17 12:59:45;;;;;;;0.80;0.77;;;27.60;60.00;;;;;;5038376;28;20447;-77
2022/08/17 13:02:21;;;;;;;0.70;0.63;;;27.90;55.90;;;;;;5039062;28;20483;-77
2022/08/17 13:04:50;;;;;;;0.90;0.60;;;28.10;55.20;;;;;;5036305;28;20435;-77
2022/08/17 13:07:27;;;;;;;0.77;0.70;;;28.50;52.00;;;;;;5036765;28;20531;-77
2022/08/17 13:09:54;;;;;;;0.80;0.80;;;28.90;51.00;;;;;;5036023;28;20432;-77
2022/08/17 13:12:27;;;;;;;0.70;0.60;;;29.20;51.10;;;;;;5034004;28;20853;-76
2022/08/17 13:14:56;;;;;;;0.70;0.70;;;29.50;50.80;;;;;;5035586;28;20443;-77
2022/08/17 13:17:31;;;;;;;0.80;0.60;;;29.30;49.20;;;;;;5036604;28;20448;-77
2022/08/17 13:19:59;;;;;;;0.70;0.70;;;29.50;50.10;;;;;;5034704;28;20435;-77
2022/08/17 13:22:28;;;;;;;0.70;0.70;;;29.50;51.70;;;;;;5034064;28;20498;-75
2022/08/17 13:24:57;;;;;;;0.70;0.60;;;29.80;48.00;;;;;;5034292;28;20455;-77
2022/08/17 13:27:27;;;;;;;0.80;0.73;;;29.90;49.50;;;;;;5034481;28;20853;-76
2022/08/17 13:29:56;;;;;;;0.80;0.70;;;30.00;48.90;;;;;;5039163;28;20448;-74
2022/08/17 13:32:38;;;;;;;0.70;0.70;;;30.20;48.70;;;;;;5038419;28;20510;-76
2022/08/17 13:35:29;;;;;;;0.80;0.70;;;30.00;47.20;;;;;;5035211;28;20423;-78
2022/08/17 13:38:00;;;;;;;0.70;0.67;;;30.30;48.80;;;;;;5034377;28;20428;-78
2022/08/17 13:40:31;;;;;;;0.70;0.70;;;30.60;46.90;;;;;;5039686;28;20515;-78
2022/08/17 13:42:58;;;;;;;0.70;0.60;;;30.90;47.90;;;;;;5037318;28;20558;-77
2022/08/17 13:45:47;;;;;;;0.70;0.67;;;31.10;45.90;;;;;;5045502;28;20451;-76
2022/08/17 13:48:22;;;;;;;0.70;0.70;;;31.30;45.90;;;;;;5038762;28;20420;-75
2022/08/17 13:51:16;;;;;;;0.70;0.60;;;31.30;44.50;;;;;;5043739;28;20473;-76
2022/08/17 13:54:05;;;;;;;0.80;0.70;;;31.40;46.60;;;;;;5046686;28;20428;-76
2022/08/17 13:56:51;;;;;;;0.70;0.60;;;31.50;44.80;;;;;;5038695;28;20443;-77
2022/08/17 13:59:28;;;;;;;0.70;0.60;;;31.50;43.80;;;;;;5039595;28;20502;-76
2022/08/17 14:01:55;;;;;;;0.90;0.60;;;31.50;45.00;;;;;;4999871;28;1043858;-77
2022/08/17 14:04:24;;;;;;;0.70;0.70;;;31.40;43.80;;;;;;5038902;28;20220;-78
2022/08/17 14:06:57;;;;;;;0.70;0.60;;;31.50;43.50;;;;;;5036564;28;20498;-76
2022/08/17 14:09:27;;;;;;;0.70;0.70;;;31.50;44.40;;;;;;5039106;28;20439;-77
2022/08/17 14:11:56;;;;;;;0.80;0.60;;;31.70;43.40;;;;;;5036080;28;20471;-77
2022/08/17 14:14:23;;;;;;;1.20;0.67;;;31.80;42.40;;;;;;5038761;28;20450;-78
2022/08/17 14:16:50;;;;;;;0.70;0.60;;;31.60;42.00;;;;;;5039652;28;20946;-78
2022/08/17 14:19:17;;;;;;;0.70;0.60;;;31.60;44.10;;;;;;5041701;28;20451;-78
2022/08/17 14:21:46;;;;;;;0.70;0.60;;;31.70;44.70;;;;;;5039651;28;20471;-78
2022/08/17 14:24:23;;;;;;;0.70;0.60;;;31.90;42.80;;;;;;5043948;28;20486;-78
2022/08/17 14:26:51;;;;;;;0.70;0.60;;;31.90;43.50;;;;;;5038032;28;20436;-77
2022/08/17 14:29:18;;;;;;;0.70;0.60;;;31.90;42.80;;;;;;5040287;28;20884;-78
2022/08/17 14:31:45;;;;;;;0.70;0.60;;;32.00;43.00;;;;;;5039937;28;20499;-78
2022/08/17 14:34:15;;;;;;;1.00;0.70;;;32.10;42.40;;;;;;5046455;28;20464;-77
2022/08/17 14:36:42;;;;;;;0.80;0.70;;;32.20;42.90;;;;;;5037164;28;20448;-78
2022/08/17 14:39:09;;;;;;;0.70;0.60;;;32.10;43.20;;;;;;5035687;28;20854;-78
2022/08/17 14:41:38;;;;;;;0.70;0.60;;;32.10;42.30;;;;;;5034819;28;20525;-77
2022/08/17 14:44:05;;;;;;;0.70;0.60;;;32.10;42.90;;;;;;5034150;28;20826;-77
2022/08/17 14:46:33;;;;;;;0.70;0.70;;;32.20;43.10;;;;;;5036868;28;20448;-77
2022/08/17 14:49:01;;;;;;;0.70;0.60;;;32.20;43.20;;;;;;5043003;28;20459;-77
2022/08/17 14:51:29;;;;;;;0.77;0.63;;;32.20;42.40;;;;;;5040117;28;20475;-77
2022/08/17 14:53:56;;;;;;;0.70;0.60;;;32.00;42.80;;;;;;5035714;28;20475;-77
2022/08/17 14:56:23;;;;;;;0.80;0.70;;;31.90;42.70;;;;;;5035716;28;20479;-78
2022/08/17 14:58:51;;;;;;;0.70;0.67;;;31.90;43.60;;;;;;5038151;28;20449;-78
2022/08/17 15:01:20;;;;;;;0.70;0.60;;;31.80;43.40;;;;;;5046038;28;20482;-78
2022/08/17 15:03:47;;;;;;;0.70;0.60;;;31.80;44.00;;;;;;5036088;28;20487;-78
2022/08/17 15:06:14;;;;;;;0.83;0.70;;;31.70;44.30;;;;;;5039366;28;20498;-78
2022/08/17 15:08:41;;;;;;;0.70;0.60;;;31.70;44.60;;;;;;5038511;28;20516;-78
2022/08/17 15:11:08;;;;;;;0.70;0.60;;;31.80;44.00;;;;;;5036812;28;20474;-78
2022/08/17 15:13:35;;;;;;;0.70;0.60;;;31.70;43.70;;;;;;5033785;28;20494;-78
2022/08/17 15:16:13;;;;;;;0.80;0.60;;;31.60;43.40;;;;;;5037245;28;20447;-78
2022/08/17 15:18:40;;;;;;;1.33;0.60;;;31.60;44.00;;;;;;5033288;28;20521;-74
2022/08/17 15:21:08;;;;;;;0.77;0.60;;;31.70;45.20;;;;;;5032908;28;20955;-74
2022/08/17 15:23:35;;;;;;;0.80;0.70;;;31.70;45.60;;;;;;5033194;28;20541;-74
2022/08/17 15:26:01;;;;;;;0.90;0.60;;;31.80;44.40;;;;;;5033207;28;20444;-74
2022/08/17 15:28:28;;;;;;;0.87;0.70;;;31.90;44.00;;;;;;5032847;28;20841;-75
2022/08/17 15:30:55;;;;;;;0.70;0.67;;;32.10;43.70;;;;;;5033092;28;20510;-74
2022/08/17 15:33:28;;;;;;;0.70;0.60;;;32.60;43.70;;;;;;5033074;28;20497;-74
2022/08/17 15:35:56;;;;;;;0.70;0.60;;;32.90;41.60;;;;;;5033119;28;20440;-73
2022/08/17 15:38:23;;;;;;;0.70;0.60;;;33.50;41.90;;;;;;5032978;28;20443;-74
2022/08/17 15:40:51;;;;;;;0.70;0.70;;;33.80;40.60;;;;;;5032656;28;20554;-74
2022/08/17 15:43:20;;;;;;;0.70;0.60;;;33.80;40.60;;;;;;5032919;28;20483;-74
2022/08/17 15:45:47;;;;;;;0.70;0.60;;;33.70;41.30;;;;;;5033004;28;20451;-74
2022/08/17 15:48:14;;;;;;;0.70;0.60;;;33.50;41.40;;;;;;5032879;28;20505;-74
2022/08/17 15:50:43;;;;;;;0.70;0.60;;;33.20;41.80;;;;;;5032962;28;20501;-74
2022/08/17 15:53:10;;;;;;;0.70;0.70;;;32.80;42.50;;;;;;5033020;28;20931;-74
2022/08/17 15:55:38;;;;;;;0.70;0.60;;;32.50;43.40;;;;;;5032866;28;20455;-74
2022/08/17 15:58:05;;;;;;;0.80;0.70;;;32.00;43.10;;;;;;5032907;28;20478;-74
2022/08/17 16:00:32;;;;;;;0.70;0.70;;;31.60;43.90;;;;;;5032735;28;20456;-74
2022/08/17 16:02:59;;;;;;;0.70;0.60;;;31.30;44.40;;;;;;5032311;28;20520;-74
2022/08/17 16:05:27;;;;;;;1.30;0.70;;;31.10;45.00;;;;;;5032811;28;20447;-75
2022/08/17 16:07:55;;;;;;;0.70;0.67;;;31.00;45.20;;;;;;5032823;28;20495;-74
2022/08/17 16:10:23;;;;;;;0.70;0.60;;;30.80;45.80;;;;;;5032816;28;20497;-74
2022/08/17 16:12:50;;;;;;;0.70;0.70;;;30.70;46.10;;;;;;5033156;28;21012;-74
2022/08/17 16:15:19;;;;;;;0.70;0.70;;;30.50;45.60;;;;;;5036440;28;20448;-74
2022/08/17 16:17:45;;;;;;;0.70;0.60;;;30.40;45.30;;;;;;5036331;28;20459;-74
2022/08/17 16:20:14;;;;;;;0.87;0.70;;;30.30;45.90;;;;;;5036247;28;20482;-74
2022/08/17 16:22:44;;;;;;;0.80;0.70;;;30.20;46.40;;;;;;5036135;28;20525;-74
2022/08/17 16:25:15;;;;;;;0.80;0.80;;;30.10;46.50;;;;;;5035816;28;20463;-74
2022/08/17 16:27:42;;;;;;;0.83;0.70;;;30.10;46.50;;;;;;5036134;28;20501;-73
2022/08/17 16:30:11;;;;;;;0.80;0.60;;;29.90;46.80;;;;;;5036090;28;20462;-74
2022/08/17 16:32:37;;;;;;;0.70;0.70;;;29.80;47.30;;;;;;5035990;28;20503;-74
2022/08/17 16:35:06;;;;;;;0.80;0.70;;;29.80;47.50;;;;;;5035988;28;20452;-74
2022/08/17 16:37:33;;;;;;;0.80;0.80;;;29.70;46.90;;;;;;5035928;28;20440;-74
2022/08/17 16:39:59;;;;;;;0.70;0.60;;;29.70;47.20;;;;;;5035504;28;20455;-74
2022/08/17 16:42:29;;;;;;;0.70;0.70;;;29.70;46.80;;;;;;5035796;28;20467;-73
2022/08/17 16:45:01;;;;;;;1.00;0.70;;;29.70;46.90;;;;;;5035689;28;20557;-73